Time;durP1;ratioP1;P1;durP2;ratioP2;P2;SDS_P1;SDS_P2;PMS_P1;PMS_P2;Temp;Humidity;BMP_temperature;BMP_pressure;BME280_temperature;BME280_humidity;BME280_pressure;Samples;Min_cycle;Max_cycle;Signal;HPM_P1;HPM_P2
2022/07/12 00:01:53;;;;;;;0.00;0.00;;;14.40;99.90;;;;;;5053775;28;20081;-80
2022/07/12 00:04:18;;;;;;;0.00;0.00;;;14.50;99.90;;;;;;5037053;28;20435;-81
2022/07/12 00:06:44;;;;;;;0.52;0.10;;;14.40;99.90;;;;;;5036041;28;20147;-81
2022/07/12 00:09:10;;;;;;;0.00;0.00;;;14.40;99.90;;;;;;5053261;28;20037;-81
2022/07/12 00:11:38;;;;;;;0.00;0.00;;;14.50;99.90;;;;;;5053480;28;20037;-81
2022/07/12 00:14:04;;;;;;;0.00;0.00;;;14.40;99.90;;;;;;5053280;28;20067;-81
2022/07/12 00:16:30;;;;;;;0.00;0.00;;;14.40;99.90;;;;;;5036713;28;20049;-81
2022/07/12 00:18:56;;;;;;;0.00;0.00;;;14.40;99.90;;;;;;5036459;28;20052;-81
2022/07/12 00:21:22;;;;;;;0.00;0.00;;;14.30;99.90;;;;;;5036421;28;20043;-80
2022/07/12 00:23:48;;;;;;;0.00;0.00;;;14.30;99.90;;;;;;5052896;28;20048;-80
2022/07/12 00:26:13;;;;;;;0.00;0.00;;;14.30;99.90;;;;;;5036660;28;20095;-81
2022/07/12 00:28:39;;;;;;;0.00;0.00;;;14.40;99.90;;;;;;5036364;28;20048;-80
2022/07/12 00:31:05;;;;;;;0.00;0.00;;;14.40;99.90;;;;;;5053405;28;20045;-81
2022/07/12 00:33:31;;;;;;;0.13;0.13;;;14.30;99.90;;;;;;5052800;28;20447;-81
2022/07/12 00:35:56;;;;;;;0.00;0.00;;;14.20;99.90;;;;;;5053619;28;20057;-81
2022/07/12 00:38:22;;;;;;;0.00;0.00;;;14.20;99.90;;;;;;5052963;28;20384;-81
2022/07/12 00:40:49;;;;;;;0.00;0.00;;;14.20;99.90;;;;;;5052907;28;20045;-81
2022/07/12 00:43:15;;;;;;;0.00;0.00;;;14.20;99.90;;;;;;5052824;28;20413;-81
2022/07/12 00:45:40;;;;;;;0.00;0.00;;;14.20;99.90;;;;;;5052643;28;20052;-81
2022/07/12 00:48:06;;;;;;;0.00;0.00;;;14.20;99.90;;;;;;5036835;28;20071;-80
2022/07/12 00:50:33;;;;;;;0.00;0.00;;;14.20;99.90;;;;;;5035698;28;20493;-81
2022/07/12 00:52:58;;;;;;;0.00;0.00;;;14.10;99.90;;;;;;5036051;28;20044;-81
2022/07/12 00:55:24;;;;;;;0.00;0.00;;;14.00;99.90;;;;;;5036187;28;20044;-81
2022/07/12 00:57:50;;;;;;;0.00;0.00;;;14.00;99.90;;;;;;5052567;28;20554;-80
2022/07/12 01:00:26;;;;;;;0.08;0.00;;;14.00;99.90;;;;;;5035951;28;20415;-81
2022/07/12 01:02:57;;;;;;;0.00;0.00;;;14.00;99.90;;;;;;5036093;28;20057;-80
2022/07/12 01:05:25;;;;;;;0.00;0.00;;;14.00;99.90;;;;;;5052751;28;20045;-81
2022/07/12 01:07:53;;;;;;;0.00;0.00;;;14.00;99.90;;;;;;5052536;28;20052;-81
2022/07/12 01:10:18;;;;;;;0.00;0.00;;;14.00;99.90;;;;;;5052322;28;20118;-81
2022/07/12 01:12:45;;;;;;;0.00;0.00;;;13.90;99.90;;;;;;5052496;28;20568;-80
2022/07/12 01:15:10;;;;;;;0.00;0.00;;;13.90;99.90;;;;;;5052647;28;20045;-80
2022/07/12 01:17:37;;;;;;;0.00;0.00;;;13.90;99.90;;;;;;5053368;28;20481;-81
2022/07/12 01:20:06;;;;;;;0.00;0.00;;;13.80;99.90;;;;;;5040110;28;20048;-80
2022/07/12 01:22:34;;;;;;;0.00;0.00;;;13.80;99.90;;;;;;5039841;28;20096;-81
2022/07/12 01:25:01;;;;;;;0.52;0.10;;;13.80;99.90;;;;;;5057180;28;20041;-80
2022/07/12 01:27:27;;;;;;;0.00;0.00;;;13.60;99.90;;;;;;5056484;28;20095;-80
2022/07/12 01:29:53;;;;;;;0.00;0.00;;;13.70;99.90;;;;;;5056403;28;20051;-80
2022/07/12 01:32:25;;;;;;;0.00;0.00;;;13.70;99.90;;;;;;5039684;28;20061;-80
2022/07/12 01:34:51;;;;;;;0.00;0.00;;;13.70;99.90;;;;;;5039916;28;20053;-80
2022/07/12 01:37:19;;;;;;;0.00;0.00;;;13.60;99.90;;;;;;5039786;28;20053;-80
2022/07/12 01:39:46;;;;;;;0.00;0.00;;;13.60;99.90;;;;;;5040079;28;20096;-81
2022/07/12 01:42:13;;;;;;;0.00;0.00;;;13.70;99.90;;;;;;5056420;28;20067;-80
2022/07/12 01:44:38;;;;;;;0.00;0.00;;;13.70;99.90;;;;;;5056321;28;20057;-80
2022/07/12 01:47:04;;;;;;;0.00;0.00;;;13.60;99.90;;;;;;5056252;28;20048;-80
2022/07/12 01:49:30;;;;;;;0.03;0.03;;;13.60;99.90;;;;;;5039225;28;20481;-80
2022/07/12 01:51:55;;;;;;;0.32;0.20;;;13.50;99.90;;;;;;5039406;28;20053;-81
2022/07/12 01:54:23;;;;;;;0.00;0.00;;;13.50;99.90;;;;;;5056004;28;20496;-81
2022/07/12 01:56:48;;;;;;;0.00;0.00;;;13.40;99.90;;;;;;5039012;28;20572;-80
2022/07/12 01:59:14;;;;;;;0.00;0.00;;;13.30;99.90;;;;;;5039653;28;20076;-80
2022/07/12 02:01:40;;;;;;;0.00;0.00;;;13.40;99.90;;;;;;5055622;28;20075;-80
2022/07/12 02:04:06;;;;;;;0.00;0.00;;;13.30;99.90;;;;;;5055859;28;20037;-81
2022/07/12 02:06:33;;;;;;;0.00;0.00;;;13.20;99.90;;;;;;5054035;28;20048;-80
2022/07/12 02:08:59;;;;;;;0.00;0.00;;;13.20;99.90;;;;;;5053331;28;20439;-80
2022/07/12 02:11:24;;;;;;;0.00;0.00;;;13.10;99.90;;;;;;5054710;28;20053;-80
2022/07/12 02:13:50;;;;;;;0.00;0.00;;;13.00;99.90;;;;;;5055744;28;20128;-80
2022/07/12 02:16:16;;;;;;;0.00;0.00;;;13.00;99.90;;;;;;5039054;28;20128;-80
2022/07/12 02:18:42;;;;;;;0.00;0.00;;;12.90;99.90;;;;;;5038892;28;20069;-81
2022/07/12 02:21:07;;;;;;;0.00;0.00;;;12.90;99.90;;;;;;5055431;28;20481;-81
2022/07/12 02:23:33;;;;;;;0.00;0.00;;;12.90;99.90;;;;;;5055660;28;20053;-81
2022/07/12 02:25:59;;;;;;;0.00;0.00;;;12.90;99.90;;;;;;5055490;28;20489;-80
2022/07/12 02:28:24;;;;;;;0.00;0.00;;;12.90;99.90;;;;;;5055239;28;20090;-80
2022/07/12 02:30:50;;;;;;;0.00;0.00;;;12.90;99.90;;;;;;5037727;28;20045;-81
2022/07/12 02:33:16;;;;;;;0.00;0.00;;;12.80;99.90;;;;;;5055441;28;20493;-80
2022/07/12 02:35:44;;;;;;;0.00;0.00;;;12.80;99.90;;;;;;5055191;28;20496;-80
2022/07/12 02:38:10;;;;;;;0.00;0.00;;;12.80;99.90;;;;;;5055228;28;20045;-80
2022/07/12 02:40:54;;;;;;;0.00;0.00;;;12.70;99.90;;;;;;5055180;28;20048;-80
2022/07/12 02:43:20;;;;;;;0.00;0.00;;;12.70;99.90;;;;;;5039025;28;20053;-81
2022/07/12 02:45:45;;;;;;;0.00;0.00;;;12.80;99.90;;;;;;5055187;28;20060;-80
2022/07/12 02:48:12;;;;;;;0.00;0.00;;;12.80;99.90;;;;;;5054956;28;20041;-80
2022/07/12 02:50:38;;;;;;;0.00;0.00;;;12.80;99.90;;;;;;5054149;28;20554;-80
2022/07/12 02:53:05;;;;;;;0.00;0.00;;;12.80;99.90;;;;;;5054918;28;20132;-81
2022/07/12 02:55:31;;;;;;;0.00;0.00;;;12.80;99.90;;;;;;5038119;28;20564;-81
2022/07/12 02:57:56;;;;;;;0.00;0.00;;;12.90;99.90;;;;;;5038043;28;20143;-80
2022/07/12 03:00:22;;;;;;;0.00;0.00;;;12.90;99.90;;;;;;5038276;28;20051;-81
2022/07/12 03:02:48;;;;;;;0.00;0.00;;;12.90;99.90;;;;;;5054386;28;20393;-80
2022/07/12 03:05:13;;;;;;;0.00;0.00;;;12.80;99.90;;;;;;5038129;28;20041;-80
2022/07/12 03:07:39;;;;;;;0.00;0.00;;;12.80;99.90;;;;;;5054674;28;20049;-80
2022/07/12 03:10:05;;;;;;;0.00;0.00;;;12.70;99.90;;;;;;5037842;28;20435;-80
2022/07/12 03:12:31;;;;;;;0.00;0.00;;;12.70;99.90;;;;;;5054553;28;20388;-80
2022/07/12 03:14:56;;;;;;;0.00;0.00;;;12.70;99.90;;;;;;5038006;28;20045;-80
2022/07/12 03:17:22;;;;;;;0.00;0.00;;;12.70;99.90;;;;;;5054458;28;20037;-80
2022/07/12 03:19:48;;;;;;;0.00;0.00;;;12.70;99.90;;;;;;5037811;28;20045;-81
2022/07/12 03:22:13;;;;;;;0.00;0.00;;;12.70;99.90;;;;;;5054385;28;20037;-80
2022/07/12 03:24:39;;;;;;;0.00;0.00;;;12.70;99.90;;;;;;5054371;28;20045;-80
2022/07/12 03:27:05;;;;;;;0.00;0.00;;;12.60;99.90;;;;;;5054266;28;20047;-81
2022/07/12 03:29:30;;;;;;;0.00;0.00;;;12.60;99.90;;;;;;5053863;28;20102;-80
2022/07/12 03:31:56;;;;;;;0.05;0.05;;;12.60;99.90;;;;;;5054175;28;20041;-80
2022/07/12 03:34:22;;;;;;;0.00;0.00;;;12.60;99.90;;;;;;5054397;28;20111;-80
2022/07/12 03:36:48;;;;;;;0.00;0.00;;;12.60;99.90;;;;;;5054286;28;20049;-80
2022/07/12 03:39:13;;;;;;;0.00;0.00;;;12.60;99.90;;;;;;5053670;28;20041;-80
2022/07/12 03:41:39;;;;;;;0.00;0.00;;;12.60;99.90;;;;;;5037279;28;20044;-81
2022/07/12 03:44:06;;;;;;;0.00;0.00;;;12.60;99.90;;;;;;5037298;28;20063;-81
2022/07/12 03:46:32;;;;;;;0.00;0.00;;;12.60;99.90;;;;;;5037233;28;20061;-81
2022/07/12 03:48:59;;;;;;;0.00;0.00;;;12.60;99.90;;;;;;5036947;28;20056;-80
2022/07/12 03:51:25;;;;;;;0.00;0.00;;;12.70;99.90;;;;;;5053792;28;20045;-80
2022/07/12 03:53:51;;;;;;;0.00;0.00;;;12.70;99.90;;;;;;5053147;28;20049;-80
2022/07/12 03:59:01;;;;;;;0.00;0.00;;;12.60;99.90;;;;;;5053717;28;20075;-81
2022/07/12 04:01:27;;;;;;;0.00;0.00;;;12.70;99.90;;;;;;5037248;28;20040;-81
2022/07/12 04:03:52;;;;;;;0.00;0.00;;;12.70;99.90;;;;;;5054121;28;20485;-81
2022/07/12 04:06:18;;;;;;;0.00;0.00;;;12.70;99.90;;;;;;5053540;28;20482;-81
2022/07/12 04:08:44;;;;;;;0.00;0.00;;;12.70;99.90;;;;;;5037135;28;20053;-80
2022/07/12 04:11:09;;;;;;;0.00;0.00;;;12.80;99.90;;;;;;5053026;28;20431;-81
2022/07/12 04:13:35;;;;;;;0.00;0.00;;;12.80;99.90;;;;;;5053351;28;20488;-81
2022/07/12 04:16:01;;;;;;;0.00;0.00;;;12.70;99.90;;;;;;5036786;28;20135;-80
2022/07/12 04:18:26;;;;;;;0.00;0.00;;;12.70;99.90;;;;;;5053220;28;20503;-80
2022/07/12 04:20:52;;;;;;;0.25;0.25;;;12.70;99.90;;;;;;5053269;28;20056;-80
2022/07/12 04:23:21;;;;;;;0.00;0.00;;;12.70;99.90;;;;;;5053541;28;20052;-80
2022/07/12 04:25:46;;;;;;;0.00;0.00;;;12.70;99.90;;;;;;5036834;28;20060;-81
2022/07/12 04:28:12;;;;;;;0.00;0.00;;;12.80;99.90;;;;;;5036524;28;20041;-81
2022/07/12 04:30:37;;;;;;;0.00;0.00;;;12.80;99.90;;;;;;5052626;28;20040;-80
2022/07/12 04:33:03;;;;;;;0.00;0.00;;;12.90;99.90;;;;;;5037028;28;20087;-81
2022/07/12 04:35:29;;;;;;;0.00;0.00;;;12.90;99.90;;;;;;5053205;28;20051;-80
2022/07/12 04:37:55;;;;;;;0.05;0.05;;;12.90;99.90;;;;;;5036543;28;20056;-81
2022/07/12 04:40:20;;;;;;;0.00;0.00;;;12.90;99.90;;;;;;5052986;28;20048;-80
2022/07/12 04:42:46;;;;;;;0.00;0.00;;;12.90;99.90;;;;;;5052894;28;20037;-80
2022/07/12 04:45:12;;;;;;;0.00;0.00;;;12.90;99.90;;;;;;5052859;28;20132;-80
2022/07/12 04:47:37;;;;;;;0.00;0.00;;;12.90;99.90;;;;;;5036442;28;20068;-80
2022/07/12 04:50:07;;;;;;;0.00;0.00;;;13.00;99.90;;;;;;5035790;28;20052;-80
2022/07/12 04:52:34;;;;;;;0.00;0.00;;;12.90;99.90;;;;;;5052197;28;20063;-81
2022/07/12 04:55:00;;;;;;;0.00;0.00;;;13.00;99.90;;;;;;5052884;28;20041;-81
2022/07/12 04:57:26;;;;;;;0.00;0.00;;;13.10;99.90;;;;;;5052712;28;20549;-80
2022/07/12 04:59:52;;;;;;;0.00;0.00;;;13.10;99.90;;;;;;5036224;28;20057;-80
2022/07/12 05:02:20;;;;;;;0.00;0.00;;;13.20;99.90;;;;;;5052878;28;20515;-80
2022/07/12 05:04:46;;;;;;;0.00;0.00;;;13.20;99.90;;;;;;5036562;28;20053;-80
2022/07/12 05:07:12;;;;;;;0.00;0.00;;;13.30;99.90;;;;;;5052699;28;20075;-80
2022/07/12 05:09:37;;;;;;;0.00;0.00;;;13.40;99.90;;;;;;5035985;28;20057;-81
2022/07/12 05:12:03;;;;;;;0.00;0.00;;;13.40;99.90;;;;;;5052813;28;20056;-80
2022/07/12 05:14:29;;;;;;;0.00;0.00;;;13.40;99.90;;;;;;5052382;28;20481;-80
2022/07/12 05:16:55;;;;;;;0.00;0.00;;;13.50;99.90;;;;;;5036056;28;20083;-80
2022/07/12 05:19:21;;;;;;;1.15;0.32;;;13.50;99.90;;;;;;5052764;28;20496;-80
2022/07/12 05:21:46;;;;;;;0.00;0.00;;;13.60;99.90;;;;;;5036158;28;20044;-80
2022/07/12 05:24:12;;;;;;;0.00;0.00;;;13.60;99.90;;;;;;5052604;28;20044;-80
2022/07/12 05:26:38;;;;;;;0.00;0.00;;;13.70;99.90;;;;;;5052330;28;20431;-80
2022/07/12 05:29:04;;;;;;;0.00;0.00;;;13.70;99.90;;;;;;5035927;28;20049;-80
2022/07/12 05:31:29;;;;;;;0.00;0.00;;;13.70;99.90;;;;;;5052178;28;20052;-80
2022/07/12 05:33:55;;;;;;;0.00;0.00;;;13.90;99.90;;;;;;5036212;28;20111;-80
2022/07/12 05:36:24;;;;;;;0.00;0.00;;;13.90;99.90;;;;;;5052896;28;20084;-80
2022/07/12 05:38:49;;;;;;;0.00;0.00;;;14.00;99.90;;;;;;5052346;28;20127;-80
2022/07/12 05:41:15;;;;;;;0.00;0.00;;;14.00;99.90;;;;;;5052593;28;20084;-80
2022/07/12 05:43:41;;;;;;;0.00;0.00;;;14.10;99.90;;;;;;5052255;28;20049;-80
2022/07/12 05:46:08;;;;;;;0.00;0.00;;;14.30;99.90;;;;;;5052228;28;20066;-80
2022/07/12 05:48:34;;;;;;;0.00;0.00;;;14.50;99.90;;;;;;5051807;28;20124;-80
2022/07/12 05:53:21;;;;;;;0.10;0.00;;;14.80;99.90;;;;;;5052315;28;20512;-80
2022/07/12 05:53:46;;;;;;;0.00;0.00;;;14.90;99.90;;;;;;5052646;28;20428;-80
2022/07/12 05:56:12;;;;;;;0.00;0.00;;;15.00;99.90;;;;;;5052083;28;20048;-80
2022/07/12 05:58:40;;;;;;;0.00;0.00;;;15.10;99.90;;;;;;5052177;28;20045;-80
2022/07/12 06:01:06;;;;;;;0.00;0.00;;;15.20;99.90;;;;;;5035198;28;20566;-80
2022/07/12 06:03:32;;;;;;;0.00;0.00;;;15.40;99.90;;;;;;5052696;28;20147;-80
2022/07/12 06:05:58;;;;;;;0.00;0.00;;;15.40;99.90;;;;;;5039199;28;20057;-80
2022/07/12 06:08:27;;;;;;;0.00;0.00;;;15.50;99.90;;;;;;5055834;28;20095;-81
2022/07/12 06:10:53;;;;;;;0.00;0.00;;;15.60;99.90;;;;;;5055520;28;20479;-80
2022/07/12 06:13:19;;;;;;;0.00;0.00;;;15.80;99.90;;;;;;5039151;28;20096;-80
2022/07/12 06:15:44;;;;;;;0.00;0.00;;;15.90;99.90;;;;;;5055359;28;20052;-80
2022/07/12 06:18:10;;;;;;;0.25;0.00;;;16.10;99.90;;;;;;5055482;28;20037;-80
2022/07/12 06:20:35;;;;;;;0.00;0.00;;;16.30;99.90;;;;;;5055536;28;20135;-80
2022/07/12 06:23:01;;;;;;;0.00;0.00;;;16.50;99.90;;;;;;5055399;28;20037;-80
2022/07/12 06:25:27;;;;;;;0.00;0.00;;;16.60;99.90;;;;;;5055394;28;20048;-80
2022/07/12 06:27:52;;;;;;;0.00;0.00;;;16.70;99.90;;;;;;5055314;28;20126;-80
2022/07/12 06:30:19;;;;;;;0.00;0.00;;;16.80;99.90;;;;;;5055210;28;20047;-80
2022/07/12 06:32:46;;;;;;;0.00;0.00;;;16.90;99.90;;;;;;5055590;28;20079;-80
2022/07/12 06:35:13;;;;;;;0.00;0.00;;;17.00;99.90;;;;;;5038481;28;20509;-80
2022/07/12 06:37:39;;;;;;;0.00;0.00;;;17.10;99.90;;;;;;5038836;28;20061;-80
2022/07/12 06:40:06;;;;;;;0.00;0.00;;;17.20;99.90;;;;;;5055366;28;20045;-80
2022/07/12 06:42:31;;;;;;;0.00;0.00;;;17.30;99.90;;;;;;5055240;28;20052;-80
2022/07/12 06:44:57;;;;;;;0.00;0.00;;;17.30;99.90;;;;;;5055099;28;20036;-80
2022/07/12 06:47:23;;;;;;;0.00;0.00;;;17.40;99.90;;;;;;5054953;28;20554;-80
2022/07/12 06:49:49;;;;;;;0.00;0.00;;;17.40;99.90;;;;;;5054443;28;20079;-80
2022/07/12 06:52:15;;;;;;;0.00;0.00;;;17.50;99.90;;;;;;5054650;28;20045;-80
2022/07/12 06:54:41;;;;;;;0.00;0.00;;;17.60;99.90;;;;;;5038866;28;20112;-80
2022/07/12 06:57:07;;;;;;;0.00;0.00;;;17.60;99.90;;;;;;5038432;28;20049;-81
2022/07/12 06:59:32;;;;;;;0.00;0.00;;;17.70;99.90;;;;;;5038111;28;20107;-80
2022/07/12 07:01:58;;;;;;;0.10;0.10;;;17.70;99.90;;;;;;5038187;28;20048;-80
2022/07/12 07:04:24;;;;;;;0.00;0.00;;;17.80;99.90;;;;;;5054604;28;20095;-80
2022/07/12 07:06:53;;;;;;;0.00;0.00;;;17.80;99.90;;;;;;5055408;28;20077;-81
2022/07/12 07:09:22;;;;;;;0.00;0.00;;;17.90;99.90;;;;;;5054636;28;20131;-81
2022/07/12 07:11:48;;;;;;;0.00;0.00;;;17.90;99.90;;;;;;5037981;28;20484;-81
2022/07/12 07:14:13;;;;;;;0.00;0.00;;;17.90;99.90;;;;;;5037955;28;20099;-80
2022/07/12 07:16:39;;;;;;;0.00;0.00;;;18.00;99.90;;;;;;5037319;28;20059;-82
2022/07/12 07:19:05;;;;;;;0.00;0.00;;;18.10;99.90;;;;;;5054346;28;20049;-81
2022/07/12 07:21:31;;;;;;;0.05;0.00;;;18.10;99.90;;;;;;5054595;28;20051;-81
2022/07/12 07:23:57;;;;;;;0.00;0.00;;;18.30;99.90;;;;;;5054790;28;20041;-81
2022/07/12 07:26:23;;;;;;;0.00;0.00;;;18.40;99.90;;;;;;5037585;28;20126;-81
2022/07/12 07:31:36;;;;;;;0.00;0.00;;;18.70;99.90;;;;;;5053986;28;20555;-81
2022/07/12 07:34:03;;;;;;;0.00;0.00;;;18.70;99.90;;;;;;5054426;28;20041;-81
2022/07/12 07:36:29;;;;;;;0.00;0.00;;;18.80;99.90;;;;;;5054153;28;20049;-80
2022/07/12 07:38:58;;;;;;;0.10;0.00;;;18.80;99.90;;;;;;5054138;28;20051;-81
2022/07/12 07:41:23;;;;;;;0.00;0.00;;;18.80;99.90;;;;;;5054200;28;20052;-81
2022/07/12 07:43:49;;;;;;;0.00;0.00;;;19.00;99.90;;;;;;5053869;28;20045;-80
2022/07/12 07:46:15;;;;;;;3.20;0.25;;;19.10;99.90;;;;;;5037031;28;20405;-81
2022/07/12 07:48:41;;;;;;;0.00;0.00;;;19.20;99.90;;;;;;5053741;28;20049;-81
2022/07/12 07:51:06;;;;;;;0.00;0.00;;;19.50;99.90;;;;;;5037273;28;20507;-81
2022/07/12 07:53:32;;;;;;;0.00;0.00;;;19.60;99.90;;;;;;5053732;28;20508;-80
2022/07/12 07:55:58;;;;;;;0.00;0.00;;;19.80;99.90;;;;;;5053335;28;20049;-80
2022/07/12 07:58:24;;;;;;;0.00;0.00;;;19.90;99.90;;;;;;5037245;28;20052;-80
2022/07/12 08:00:50;;;;;;;0.00;0.00;;;20.00;99.90;;;;;;5036727;28;20144;-81
2022/07/12 08:03:17;;;;;;;0.00;0.00;;;20.10;99.90;;;;;;5054100;28;20053;-80
2022/07/12 08:05:43;;;;;;;0.00;0.00;;;20.10;99.90;;;;;;5053496;28;20378;-80
2022/07/12 08:08:09;;;;;;;0.38;0.10;;;20.20;99.90;;;;;;5053432;28;20111;-81
2022/07/12 08:10:35;;;;;;;2.40;0.68;;;20.20;99.90;;;;;;5053224;28;20536;-81
2022/07/12 08:13:00;;;;;;;0.00;0.00;;;20.20;99.90;;;;;;5036871;28;20145;-80
2022/07/12 08:15:26;;;;;;;0.00;0.00;;;20.20;99.90;;;;;;5036544;28;20045;-80
2022/07/12 08:17:52;;;;;;;0.00;0.00;;;20.30;99.90;;;;;;5037273;28;20048;-80
2022/07/12 08:20:18;;;;;;;0.00;0.00;;;20.40;99.90;;;;;;5053172;28;20068;-80
2022/07/12 08:22:47;;;;;;;0.00;0.00;;;20.40;99.90;;;;;;5036336;28;20041;-80
2022/07/12 08:25:13;;;;;;;0.00;0.00;;;20.50;99.90;;;;;;5053189;28;20138;-81
2022/07/12 08:27:39;;;;;;;0.00;0.00;;;20.60;99.90;;;;;;5051708;28;20417;-80
2022/07/12 08:30:05;;;;;;;0.10;0.10;;;20.80;99.90;;;;;;5053195;28;20037;-80
2022/07/12 08:32:31;;;;;;;0.00;0.00;;;20.80;99.90;;;;;;5053048;28;20068;-80
2022/07/12 08:34:56;;;;;;;0.00;0.00;;;20.90;99.90;;;;;;5052778;28;20041;-80
2022/07/12 08:37:22;;;;;;;0.00;0.00;;;21.00;99.90;;;;;;5036827;28;20113;-81
2022/07/12 08:39:48;;;;;;;0.00;0.00;;;21.10;99.90;;;;;;5052826;28;20041;-80
2022/07/12 08:42:18;;;;;;;0.00;0.00;;;21.30;99.90;;;;;;5036044;28;20063;-81
2022/07/12 08:44:53;;;;;;;0.00;0.00;;;21.50;99.90;;;;;;5053553;28;20055;-80
2022/07/12 08:47:18;;;;;;;;;;;21.60;99.90;;;;;;5053160;28;20048;-80
2022/07/12 08:50:14;;;;;;;0.00;0.00;;;21.60;99.90;;;;;;5035789;28;19920;-80
2022/07/12 08:52:45;;;;;;;0.00;0.00;;;21.70;99.90;;;;;;5036162;28;20505;-81
2022/07/12 08:55:18;;;;;;;0.00;0.00;;;21.80;99.90;;;;;;5053466;28;20132;-81
2022/07/12 08:57:44;;;;;;;0.00;0.00;;;21.80;99.90;;;;;;5052581;28;20051;-80
2022/07/12 09:00:11;;;;;;;0.00;0.00;;;21.90;99.90;;;;;;5035813;28;20136;-80
2022/07/12 09:02:57;;;;;;;0.00;0.00;;;22.00;99.90;;;;;;5052457;28;20052;-80
2022/07/12 09:05:28;;;;;;;0.00;0.00;;;22.10;99.90;;;;;;5052589;28;20099;-80
2022/07/12 09:08:05;;;;;;;0.00;0.00;;;22.20;99.90;;;;;;5052895;28;20037;-80
2022/07/12 09:10:32;;;;;;;0.00;0.00;;;22.30;99.90;;;;;;5035997;28;20048;-80
2022/07/12 09:13:01;;;;;;;0.00;0.00;;;22.40;99.90;;;;;;5052514;28;20045;-81
2022/07/12 09:15:27;;;;;;;0.00;0.00;;;22.50;99.90;;;;;;5035578;28;20048;-80
2022/07/12 09:17:56;;;;;;;0.00;0.00;;;22.60;99.90;;;;;;5052477;28;20162;-80
2022/07/12 09:20:24;;;;;;;0.47;0.00;;;22.70;99.90;;;;;;5035803;28;20041;-80
2022/07/12 09:23:21;;;;;;;0.00;0.00;;;22.80;99.90;;;;;;5035905;28;20045;-80
2022/07/12 09:25:48;;;;;;;0.00;0.00;;;22.80;99.90;;;;;;5015144;28;20049;-80
2022/07/12 09:28:14;;;;;;;0.00;0.00;;;22.90;99.90;;;;;;5015027;28;20045;-80
2022/07/12 09:30:48;;;;;;;0.00;0.00;;;23.10;99.90;;;;;;5014907;28;20088;-80
2022/07/12 09:36:06;;;;;;;0.00;0.00;;;23.10;99.90;;;;;;5014918;28;20060;-80
2022/07/12 09:38:53;;;;;;;0.00;0.00;;;23.20;99.90;;;;;;4998688;28;20053;-79
2022/07/12 09:41:23;;;;;;;0.00;0.00;;;23.40;99.90;;;;;;5018783;28;20159;-80
2022/07/12 09:43:50;;;;;;;0.00;0.00;;;23.50;99.90;;;;;;5002393;28;20064;-80
2022/07/12 09:46:16;;;;;;;0.00;0.00;;;23.60;99.90;;;;;;5018575;28;20041;-80
2022/07/12 09:48:44;;;;;;;0.00;0.00;;;23.70;99.90;;;;;;5018363;28;20061;-80
2022/07/12 09:51:13;;;;;;;0.00;0.00;;;23.90;99.90;;;;;;5018578;28;20111;-80
2022/07/12 09:53:43;;;;;;;0.00;0.00;;;24.10;99.90;;;;;;5018440;28;20041;-80
2022/07/12 09:56:11;;;;;;;0.00;0.00;;;24.30;99.90;;;;;;5018659;28;20053;-80
2022/07/12 09:58:57;;;;;;;0.00;0.00;;;24.20;99.90;;;;;;5018371;28;20054;-80
2022/07/12 10:01:24;;;;;;;0.00;0.00;;;24.20;99.90;;;;;;5023010;28;20136;-80
2022/07/12 10:03:52;;;;;;;0.10;0.00;;;24.20;99.90;;;;;;5055598;28;20072;-80
2022/07/12 10:06:26;;;;;;;0.00;0.00;;;24.20;99.90;;;;;;5055527;28;20389;-80
2022/07/12 10:08:53;;;;;;;0.00;0.00;;;24.20;99.90;;;;;;5056179;28;20041;-80
2022/07/12 10:11:20;;;;;;;0.00;0.00;;;24.30;99.90;;;;;;5055480;28;20485;-81
2022/07/12 10:13:47;;;;;;;0.00;0.00;;;24.40;99.90;;;;;;5055128;28;20056;-81
2022/07/12 10:16:14;;;;;;;0.00;0.00;;;24.50;99.90;;;;;;5055448;28;20060;-81
2022/07/12 10:18:40;;;;;;;0.00;0.00;;;24.60;99.90;;;;;;5056165;28;20077;-81
2022/07/12 10:21:21;;;;;;;0.00;0.00;;;24.70;99.90;;;;;;5055892;28;20045;-81
2022/07/12 10:23:47;;;;;;;0.00;0.00;;;24.80;99.90;;;;;;5055701;28;20102;-81
2022/07/12 10:26:16;;;;;;;0.00;0.00;;;25.10;99.90;;;;;;5055485;28;20087;-80
2022/07/12 10:29:01;;;;;;;0.00;0.00;;;25.30;99.90;;;;;;5054958;28;20063;-81
2022/07/12 10:31:36;;;;;;;0.00;0.00;;;25.30;99.90;;;;;;5055092;28;20049;-80
2022/07/12 10:34:24;;;;;;;0.80;0.10;;;25.20;99.90;;;;;;5038764;28;20496;-80
2022/07/12 10:36:55;;;;;;;0.00;0.00;;;25.10;99.90;;;;;;5038619;28;20059;-80
2022/07/12 10:39:28;;;;;;;0.00;0.00;;;25.20;99.90;;;;;;5055262;28;20428;-81
2022/07/12 10:42:12;;;;;;;0.00;0.00;;;25.40;99.90;;;;;;5038407;28;20052;-81
2022/07/12 10:44:41;;;;;;;0.00;0.00;;;25.40;99.90;;;;;;5055006;28;20128;-81
2022/07/12 10:47:08;;;;;;;0.00;0.00;;;25.70;99.90;;;;;;5054894;28;20143;-81
2022/07/12 10:49:35;;;;;;;0.00;0.00;;;26.10;99.90;;;;;;5054903;28;20059;-81
2022/07/12 10:52:10;;;;;;;0.00;0.00;;;26.20;99.90;;;;;;5037159;28;20135;-81
2022/07/12 10:54:54;;;;;;;0.00;0.00;;;26.30;99.90;;;;;;5054868;28;20072;-81
2022/07/12 10:57:43;;;;;;;0.00;0.00;;;26.30;99.90;;;;;;5038167;28;20386;-81
2022/07/12 11:00:13;;;;;;;0.00;0.00;;;26.20;99.90;;;;;;5055459;28;20044;-81
2022/07/12 11:02:40;;;;;;;0.00;0.00;;;26.20;99.90;;;;;;5055198;28;20358;-81
2022/07/12 11:05:06;;;;;;;0.00;0.00;;;26.30;99.90;;;;;;5054275;28;20038;-81
2022/07/12 11:07:32;;;;;;;0.00;0.00;;;26.50;99.80;;;;;;5054247;28;20041;-81
2022/07/12 11:09:58;;;;;;;0.00;0.00;;;26.50;99.90;;;;;;5054226;28;20033;-81
2022/07/12 11:12:31;;;;;;;0.00;0.00;;;26.60;99.90;;;;;;5037820;28;20106;-81
2022/07/12 11:14:59;;;;;;;0.00;0.00;;;26.60;99.90;;;;;;5037607;28;20404;-81
2022/07/12 11:17:30;;;;;;;0.00;0.00;;;26.70;99.90;;;;;;5054644;28;20049;-81
2022/07/12 11:20:27;;;;;;;0.00;0.00;;;26.90;99.90;;;;;;5054296;28;20064;-81
2022/07/12 11:22:54;;;;;;;0.15;0.15;;;26.90;99.30;;;;;;5037069;28;20148;-82
2022/07/12 11:25:20;;;;;;;0.00;0.00;;;26.80;95.80;;;;;;5053930;28;20056;-81
2022/07/12 11:27:46;;;;;;;0.00;0.00;;;26.70;97.00;;;;;;5054752;28;20401;-81
2022/07/12 11:30:13;;;;;;;0.00;0.00;;;26.80;98.20;;;;;;5054036;28;20044;-81
2022/07/12 11:32:43;;;;;;;0.00;0.00;;;26.70;99.30;;;;;;5054294;28;20048;-81
2022/07/12 11:35:22;;;;;;;0.00;0.00;;;26.80;99.90;;;;;;5037351;28;20049;-81
2022/07/12 11:37:53;;;;;;;0.00;0.00;;;27.00;99.90;;;;;;5054010;28;20508;-81
2022/07/12 11:40:29;;;;;;;0.00;0.00;;;27.10;98.80;;;;;;5037874;28;20075;-80
2022/07/12 11:42:58;;;;;;;0.00;0.00;;;27.20;98.10;;;;;;5054596;28;20139;-81
2022/07/12 11:45:25;;;;;;;0.00;0.00;;;27.20;97.90;;;;;;5037353;28;20041;-81
2022/07/12 11:47:52;;;;;;;0.00;0.00;;;27.20;97.10;;;;;;5053705;28;20500;-81
2022/07/12 11:50:19;;;;;;;0.00;0.00;;;27.30;99.80;;;;;;5053396;28;20057;-81
2022/07/12 11:52:45;;;;;;;0.00;0.00;;;27.40;97.60;;;;;;5036769;28;20053;-81
2022/07/12 11:55:11;;;;;;;0.00;0.00;;;27.40;95.20;;;;;;5037498;28;20090;-81
2022/07/12 11:57:37;;;;;;;0.00;0.00;;;27.50;97.10;;;;;;5053742;28;20127;-81
2022/07/12 12:00:25;;;;;;;0.00;0.00;;;27.60;98.40;;;;;;5035602;28;20045;-81
2022/07/12 12:02:52;;;;;;;0.00;0.00;;;27.70;94.60;;;;;;5086734;28;20087;-81
2022/07/12 12:05:21;;;;;;;0.00;0.00;;;27.60;96.80;;;;;;5086772;28;20053;-81
2022/07/12 12:07:47;;;;;;;0.00;0.00;;;27.60;92.40;;;;;;5069930;28;20060;-81
2022/07/12 12:10:14;;;;;;;0.00;0.00;;;27.60;96.40;;;;;;5087086;28;20099;-81
2022/07/12 12:12:55;;;;;;;0.00;0.00;;;27.60;96.30;;;;;;5087086;28;20087;-81
2022/07/12 12:15:33;;;;;;;0.08;0.08;;;27.70;98.00;;;;;;5086979;28;20055;-81
2022/07/12 12:18:05;;;;;;;0.00;0.00;;;27.70;98.60;;;;;;5086857;28;20478;-82
2022/07/12 12:20:38;;;;;;;0.00;0.00;;;27.70;96.20;;;;;;5069960;28;20141;-82
2022/07/12 12:23:18;;;;;;;0.00;0.00;;;27.60;97.60;;;;;;5069991;28;20060;-82
2022/07/12 12:25:45;;;;;;;0.00;0.00;;;27.70;98.30;;;;;;5086934;28;20045;-82
2022/07/12 12:28:14;;;;;;;0.00;0.00;;;27.70;96.30;;;;;;5087324;28;20049;-82
2022/07/12 12:30:54;;;;;;;0.00;0.00;;;27.70;97.90;;;;;;5052877;28;20068;-82
2022/07/12 12:33:39;;;;;;;0.00;0.00;;;28.00;98.70;;;;;;5086872;28;20439;-81
2022/07/12 12:36:20;;;;;;;0.00;0.00;;;28.20;97.40;;;;;;5070338;28;20091;-81
2022/07/12 12:38:49;;;;;;;0.00;0.00;;;28.20;99.10;;;;;;5086692;28;20548;-82
2022/07/12 12:41:19;;;;;;;0.00;0.00;;;28.30;95.50;;;;;;5070156;28;20045;-82
2022/07/12 12:43:45;;;;;;;0.10;0.10;;;28.40;97.20;;;;;;5086356;28;20132;-82
2022/07/12 12:46:11;;;;;;;0.00;0.00;;;28.40;95.40;;;;;;5052550;28;20087;-81
2022/07/12 12:48:36;;;;;;;0.00;0.00;;;28.50;96.40;;;;;;5052575;28;20137;-82
2022/07/12 12:51:07;;;;;;;0.00;0.00;;;28.50;92.30;;;;;;5069322;28;20088;-82
2022/07/12 12:53:33;;;;;;;0.00;0.00;;;28.50;93.30;;;;;;5069730;28;20045;-81
2022/07/12 12:55:59;;;;;;;0.00;0.00;;;28.50;85.50;;;;;;5069305;28;20045;-82
2022/07/12 12:58:25;;;;;;;0.00;0.00;;;28.50;90.60;;;;;;5079253;28;20704;-81
2022/07/12 13:00:55;;;;;;;0.00;0.00;;;28.50;89.40;;;;;;5075319;28;20404;-81